sensor_id;sensor_type;location;lat;lon;timestamp;temperature;humidity
72646;DHT22;60687;53.876;10.674;2023-02-01T00:07:51;5.50;98.50
72646;DHT22;60687;53.876;10.674;2023-02-01T00:17:55;5.50;98.30
72646;DHT22;60687;53.876;10.674;2023-02-01T00:28:01;5.50;98.10
72646;DHT22;60687;53.876;10.674;2023-02-01T00:38:06;5.50;98.00
72646;DHT22;60687;53.876;10.674;2023-02-01T00:48:08;5.50;98.00
72646;DHT22;60687;53.876;10.674;2023-02-01T00:58:12;5.50;98.90
72646;DHT22;60687;53.876;10.674;2023-02-01T01:08:15;5.50;99.40
72646;DHT22;60687;53.876;10.674;2023-02-01T01:18:19;5.50;99.20
72646;DHT22;60687;53.876;10.674;2023-02-01T01:28:21;5.50;98.90
72646;DHT22;60687;53.876;10.674;2023-02-01T01:38:29;5.60;98.30
72646;DHT22;60687;53.876;10.674;2023-02-01T01:48:35;5.60;98.20
72646;DHT22;60687;53.876;10.674;2023-02-01T01:58:40;5.60;98.40
72646;DHT22;60687;53.876;10.674;2023-02-01T02:08:46;5.60;98.30
72646;DHT22;60687;53.876;10.674;2023-02-01T02:19:07;5.60;97.80
72646;DHT22;60687;53.876;10.674;2023-02-01T02:30:10;5.60;97.80
72646;DHT22;60687;53.876;10.674;2023-02-01T02:40:25;5.60;98.30
72646;DHT22;60687;53.876;10.674;2023-02-01T02:50:35;5.60;98.70
72646;DHT22;60687;53.876;10.674;2023-02-01T03:00:58;5.60;99.40
72646;DHT22;60687;53.876;10.674;2023-02-01T03:11:19;5.60;99.60
72646;DHT22;60687;53.876;10.674;2023-02-01T03:21:26;5.60;99.80
72646;DHT22;60687;53.876;10.674;2023-02-01T03:31:30;5.70;99.90
72646;DHT22;60687;53.876;10.674;2023-02-01T03:41:37;5.70;99.90
72646;DHT22;60687;53.876;10.674;2023-02-01T03:51:42;5.70;99.90
72646;DHT22;60687;53.876;10.674;2023-02-01T04:01:46;5.70;98.90
72646;DHT22;60687;53.876;10.674;2023-02-01T04:11:48;5.50;99.70
72646;DHT22;60687;53.876;10.674;2023-02-01T04:21:52;5.40;99.90
72646;DHT22;60687;53.876;10.674;2023-02-01T04:31:57;5.40;99.90
72646;DHT22;60687;53.876;10.674;2023-02-01T04:42:03;5.10;99.90
72646;DHT22;60687;53.876;10.674;2023-02-01T04:52:06;5.00;99.90
72646;DHT22;60687;53.876;10.674;2023-02-01T05:02:11;4.90;99.90
72646;DHT22;60687;53.876;10.674;2023-02-01T05:12:14;4.80;99.90
72646;DHT22;60687;53.876;10.674;2023-02-01T05:22:35;4.70;99.90
72646;DHT22;60687;53.876;10.674;2023-02-01T05:32:37;4.70;99.90
72646;DHT22;60687;53.876;10.674;2023-02-01T05:42:44;4.70;99.90
72646;DHT22;60687;53.876;10.674;2023-02-01T05:52:55;4.70;99.90
72646;DHT22;60687;53.876;10.674;2023-02-01T06:03:52;4.60;99.90
72646;DHT22;60687;53.876;10.674;2023-02-01T06:14:05;4.60;99.90
72646;DHT22;60687;53.876;10.674;2023-02-01T06:24:14;4.60;99.90
72646;DHT22;60687;53.876;10.674;2023-02-01T06:34:42;4.60;99.90
72646;DHT22;60687;53.876;10.674;2023-02-01T06:44:48;4.60;99.90
72646;DHT22;60687;53.876;10.674;2023-02-01T06:54:51;4.50;99.90
72646;DHT22;60687;53.876;10.674;2023-02-01T07:04:57;4.50;99.90
72646;DHT22;60687;53.876;10.674;2023-02-01T07:15:03;4.40;99.90
72646;DHT22;60687;53.876;10.674;2023-02-01T07:25:11;4.40;99.90
72646;DHT22;60687;53.876;10.674;2023-02-01T07:35:14;4.40;99.90
72646;DHT22;60687;53.876;10.674;2023-02-01T07:45:24;4.40;99.90
72646;DHT22;60687;53.876;10.674;2023-02-01T07:55:28;4.40;99.90
72646;DHT22;60687;53.876;10.674;2023-02-01T08:05:32;4.40;99.90
72646;DHT22;60687;53.876;10.674;2023-02-01T08:15:35;4.50;99.90
72646;DHT22;60687;53.876;10.674;2023-02-01T08:25:39;4.60;99.90
72646;DHT22;60687;53.876;10.674;2023-02-01T08:35:41;4.90;99.90
72646;DHT22;60687;53.876;10.674;2023-02-01T08:45:47;5.10;99.90
72646;DHT22;60687;53.876;10.674;2023-02-01T08:55:50;5.40;99.90
72646;DHT22;60687;53.876;10.674;2023-02-01T09:06:00;5.30;99.90
72646;DHT22;60687;53.876;10.674;2023-02-01T09:16:03;5.30;99.90
72646;DHT22;60687;53.876;10.674;2023-02-01T09:26:06;5.40;99.90
72646;DHT22;60687;53.876;10.674;2023-02-01T09:36:09;5.80;99.90
72646;DHT22;60687;53.876;10.674;2023-02-01T09:46:21;6.00;99.90
72646;DHT22;60687;53.876;10.674;2023-02-01T09:56:29;6.00;99.90
72646;DHT22;60687;53.876;10.674;2023-02-01T10:06:51;5.90;99.90
72646;DHT22;60687;53.876;10.674;2023-02-01T10:17:07;6.10;99.90
72646;DHT22;60687;53.876;10.674;2023-02-01T10:27:19;6.30;99.90
72646;DHT22;60687;53.876;10.674;2023-02-01T10:37:28;6.30;99.90
72646;DHT22;60687;53.876;10.674;2023-02-01T10:47:40;6.50;99.90
72646;DHT22;60687;53.876;10.674;2023-02-01T10:57:55;6.60;99.90
72646;DHT22;60687;53.876;10.674;2023-02-01T11:08:03;6.70;99.90
72646;DHT22;60687;53.876;10.674;2023-02-01T11:18:16;6.60;99.90
72646;DHT22;60687;53.876;10.674;2023-02-01T11:28:27;6.60;99.90
72646;DHT22;60687;53.876;10.674;2023-02-01T11:38:33;6.60;99.90
72646;DHT22;60687;53.876;10.674;2023-02-01T11:48:37;6.20;99.90
72646;DHT22;60687;53.876;10.674;2023-02-01T11:58:58;6.00;99.90
72646;DHT22;60687;53.876;10.674;2023-02-01T12:19:56;6.10;99.90
72646;DHT22;60687;53.876;10.674;2023-02-01T12:30:32;6.10;99.90
72646;DHT22;60687;53.876;10.674;2023-02-01T12:40:47;6.20;99.90
72646;DHT22;60687;53.876;10.674;2023-02-01T12:50:58;6.00;99.90
72646;DHT22;60687;53.876;10.674;2023-02-01T13:01:09;5.70;99.90
72646;DHT22;60687;53.876;10.674;2023-02-01T13:11:29;5.40;99.90
72646;DHT22;60687;53.876;10.674;2023-02-01T13:21:36;5.40;99.90
72646;DHT22;60687;53.876;10.674;2023-02-01T13:31:56;5.40;99.90
72646;DHT22;60687;53.876;10.674;2023-02-01T13:42:03;5.50;99.90
72646;DHT22;60687;53.876;10.674;2023-02-01T13:52:25;5.40;99.90
72646;DHT22;60687;53.876;10.674;2023-02-01T14:02:49;5.20;99.90
72646;DHT22;60687;53.876;10.674;2023-02-01T14:13:03;5.10;99.90
72646;DHT22;60687;53.876;10.674;2023-02-01T14:23:12;5.00;99.90
72646;DHT22;60687;53.876;10.674;2023-02-01T14:33:23;5.00;99.90
72646;DHT22;60687;53.876;10.674;2023-02-01T14:43:50;5.10;99.90
72646;DHT22;60687;53.876;10.674;2023-02-01T14:53:55;5.00;99.90
72646;DHT22;60687;53.876;10.674;2023-02-01T15:04:05;4.90;99.90
72646;DHT22;60687;53.876;10.674;2023-02-01T15:14:14;5.00;99.90
72646;DHT22;60687;53.876;10.674;2023-02-01T15:24:20;5.00;99.90
72646;DHT22;60687;53.876;10.674;2023-02-01T15:46:12;4.90;99.90
72646;DHT22;60687;53.876;10.674;2023-02-01T15:56:25;4.90;99.90
72646;DHT22;60687;53.876;10.674;2023-02-01T16:06:32;4.90;99.90
72646;DHT22;60687;53.876;10.674;2023-02-01T16:16:37;5.00;99.90
72646;DHT22;60687;53.876;10.674;2023-02-01T16:26:40;5.00;99.90
72646;DHT22;60687;53.876;10.674;2023-02-01T16:36:47;5.00;99.90
72646;DHT22;60687;53.876;10.674;2023-02-01T16:46:52;5.00;99.90
72646;DHT22;60687;53.876;10.674;2023-02-01T16:56:56;5.00;99.90
72646;DHT22;60687;53.876;10.674;2023-02-01T17:07:03;5.00;99.90
72646;DHT22;60687;53.876;10.674;2023-02-01T17:17:11;5.00;99.90
72646;DHT22;60687;53.876;10.674;2023-02-01T17:27:14;5.00;99.90
72646;DHT22;60687;53.876;10.674;2023-02-01T17:37:23;5.00;99.90
72646;DHT22;60687;53.876;10.674;2023-02-01T17:47:31;5.10;99.90
72646;DHT22;60687;53.876;10.674;2023-02-01T17:57:35;5.20;99.90
72646;DHT22;60687;53.876;10.674;2023-02-01T18:07:38;5.20;99.90
72646;DHT22;60687;53.876;10.674;2023-02-01T18:17:46;5.30;99.90
72646;DHT22;60687;53.876;10.674;2023-02-01T18:27:49;5.40;99.90
72646;DHT22;60687;53.876;10.674;2023-02-01T18:38:03;5.40;99.90
72646;DHT22;60687;53.876;10.674;2023-02-01T18:48:08;5.50;99.90
72646;DHT22;60687;53.876;10.674;2023-02-01T18:58:48;5.40;99.90
72646;DHT22;60687;53.876;10.674;2023-02-01T19:08:44;5.40;99.70
72646;DHT22;60687;53.876;10.674;2023-02-01T19:18:52;5.40;99.90
72646;DHT22;60687;53.876;10.674;2023-02-01T19:28:59;5.30;99.90
72646;DHT22;60687;53.876;10.674;2023-02-01T19:50:00;5.20;99.90
72646;DHT22;60687;53.876;10.674;2023-02-01T20:00:13;5.10;99.90
72646;DHT22;60687;53.876;10.674;2023-02-01T20:10:17;5.10;99.90
72646;DHT22;60687;53.876;10.674;2023-02-01T20:20:24;5.00;99.90
72646;DHT22;60687;53.876;10.674;2023-02-01T20:30:26;5.00;99.90
72646;DHT22;60687;53.876;10.674;2023-02-01T20:40:32;4.90;99.90
72646;DHT22;60687;53.876;10.674;2023-02-01T20:50:35;5.00;99.90
72646;DHT22;60687;53.876;10.674;2023-02-01T21:00:49;5.00;99.90
72646;DHT22;60687;53.876;10.674;2023-02-01T21:10:56;5.10;99.90
72646;DHT22;60687;53.876;10.674;2023-02-01T21:21:06;5.20;99.90
72646;DHT22;60687;53.876;10.674;2023-02-01T21:31:10;5.20;99.90
72646;DHT22;60687;53.876;10.674;2023-02-01T21:41:18;5.20;99.90
72646;DHT22;60687;53.876;10.674;2023-02-01T21:51:41;5.30;99.90
72646;DHT22;60687;53.876;10.674;2023-02-01T22:01:46;5.30;99.90
72646;DHT22;60687;53.876;10.674;2023-02-01T22:11:54;5.30;99.90
72646;DHT22;60687;53.876;10.674;2023-02-01T22:21:59;5.20;99.90
72646;DHT22;60687;53.876;10.674;2023-02-01T22:32:04;5.20;99.90
72646;DHT22;60687;53.876;10.674;2023-02-01T22:42:10;5.30;99.90
72646;DHT22;60687;53.876;10.674;2023-02-01T22:52:12;5.30;99.90
72646;DHT22;60687;53.876;10.674;2023-02-01T23:02:21;5.40;99.90
72646;DHT22;60687;53.876;10.674;2023-02-01T23:12:23;5.50;99.90
72646;DHT22;60687;53.876;10.674;2023-02-01T23:22:40;5.50;99.90
72646;DHT22;60687;53.876;10.674;2023-02-01T23:32:43;5.70;99.90
72646;DHT22;60687;53.876;10.674;2023-02-01T23:42:53;5.80;99.90
72646;DHT22;60687;53.876;10.674;2023-02-01T23:53:10;5.80;99.90
